createdAt,value
2019-02-23T00:00:28.804Z,12.50
2019-02-23T00:05:33.202Z,11.13
2019-02-23T00:10:35.939Z,10.47
2019-02-23T00:15:38.734Z,8.80
2019-02-23T00:20:41.580Z,13.17
2019-02-23T00:25:44.701Z,12.93
2019-02-23T00:30:47.154Z,12.00
2019-02-23T00:35:49.403Z,10.80
2019-02-23T00:40:51.714Z,8.87
2019-02-23T00:45:54.205Z,11.47
2019-02-23T00:50:56.500Z,10.60
2019-02-23T00:55:58.690Z,11.30
2019-02-23T01:01:00.945Z,11.20
2019-02-23T01:06:04.105Z,10.03
2019-02-23T01:11:07.454Z,10.87
2019-02-23T01:16:09.905Z,12.90
2019-02-23T01:21:12.787Z,20.47
2019-02-23T01:26:15.126Z,13.47
2019-02-23T01:31:17.585Z,10.90
2019-02-23T01:36:19.836Z,12.00
2019-02-23T01:41:23.149Z,14.07
2019-02-23T01:46:25.695Z,10.60
2019-02-23T01:51:29.008Z,12.30
2019-02-23T01:56:31.610Z,10.20
2019-02-23T02:01:34.215Z,18.40
2019-02-23T02:06:37.282Z,9.80
2019-02-23T02:11:39.883Z,11.67
2019-02-23T02:16:42.373Z,11.53
2019-02-23T02:21:45.006Z,10.57
2019-02-23T02:26:47.587Z,12.50
2019-02-23T02:31:50.480Z,10.27
2019-02-23T02:36:53.277Z,15.07
2019-02-23T02:41:55.560Z,14.37
2019-02-23T02:46:58.582Z,13.27
2019-02-23T02:52:00.954Z,12.63
2019-02-23T02:57:03.384Z,14.40
2019-02-23T03:02:05.877Z,14.10
2019-02-23T03:07:08.476Z,20.83
2019-02-23T03:12:11.073Z,14.53
2019-02-23T03:17:14.178Z,15.90
2019-02-23T03:22:17.588Z,16.47
2019-02-23T03:27:19.873Z,14.30
2019-02-23T03:32:22.981Z,14.53
2019-02-23T03:37:26.260Z,16.67
2019-02-23T03:42:28.582Z,14.43
2019-02-23T03:47:31.087Z,12.83
2019-02-23T03:52:34.329Z,15.33
2019-02-23T03:57:36.575Z,15.80
2019-02-23T04:02:38.799Z,16.53
2019-02-23T04:07:41.121Z,15.23
2019-02-23T04:12:43.431Z,14.43
2019-02-23T04:17:45.713Z,19.77
2019-02-23T04:22:48.080Z,16.70
2019-02-23T04:27:51.105Z,14.80
2019-02-23T04:32:53.327Z,18.03
2019-02-23T04:37:56.285Z,15.53
2019-02-23T04:42:59.368Z,17.30
2019-02-23T04:48:01.610Z,19.30
2019-02-23T04:53:04.129Z,16.60
2019-02-23T04:58:06.695Z,16.50
2019-02-23T05:03:08.924Z,19.93
2019-02-23T05:08:11.154Z,19.07
2019-02-23T05:13:13.725Z,20.07
2019-02-23T05:18:16.748Z,19.27
2019-02-23T05:23:19.599Z,16.87
2019-02-23T05:28:22.637Z,18.93
2019-02-23T05:33:24.884Z,17.37
2019-02-23T05:38:27.580Z,22.50
2019-02-23T05:43:30.153Z,15.60
2019-02-23T05:48:33.283Z,19.53
2019-02-23T05:53:35.485Z,20.00
2019-02-23T05:58:38.823Z,14.90
2019-02-23T06:03:41.512Z,17.63
2019-02-23T06:08:44.583Z,19.67
2019-02-23T06:13:47.609Z,17.47
2019-02-23T06:18:50.463Z,16.43
2019-02-23T06:23:53.274Z,17.00
2019-02-23T06:28:55.864Z,17.80
2019-02-23T06:33:58.955Z,18.60
2019-02-23T06:39:01.440Z,18.30
2019-02-23T06:44:06.134Z,17.60
2019-02-23T06:49:08.775Z,19.10
2019-02-23T06:54:11.563Z,19.13
2019-02-23T06:59:14.634Z,20.57
2019-02-23T07:04:17.441Z,20.60
2019-02-23T07:09:20.590Z,20.33
2019-02-23T07:14:23.010Z,20.83
2019-02-23T07:19:25.731Z,19.60
2019-02-23T07:24:28.230Z,18.27
2019-02-23T07:29:32.406Z,22.67
2019-02-23T07:34:35.165Z,20.13
2019-02-23T07:39:37.646Z,20.03
2019-02-23T07:44:40.016Z,19.57
2019-02-23T08:01:19.883Z,19.57
2019-02-23T08:06:22.362Z,20.60
2019-02-23T08:11:24.755Z,19.53
2019-02-23T08:16:26.917Z,20.73
2019-02-23T08:21:29.157Z,20.60
2019-02-23T08:26:31.892Z,20.13
2019-02-23T08:31:34.109Z,25.43
2019-02-23T08:36:36.460Z,21.03
2019-02-23T08:41:38.637Z,16.33
2019-02-23T08:46:40.950Z,16.50
2019-02-23T08:51:43.146Z,19.47
2019-02-23T08:56:45.577Z,16.23
2019-02-23T09:01:48.290Z,18.33
2019-02-23T09:06:50.469Z,19.83
2019-02-23T09:11:53.148Z,17.03
2019-02-23T09:16:55.824Z,16.03
2019-02-23T09:21:58.322Z,18.67
2019-02-23T09:27:00.737Z,16.10
2019-02-23T09:32:03.123Z,18.90
2019-02-23T09:37:05.585Z,16.90
2019-02-23T09:42:08.521Z,15.43
2019-02-23T09:47:11.295Z,15.17
2019-02-23T09:52:13.447Z,15.10
2019-02-23T09:57:16.604Z,17.03
2019-02-23T10:02:18.760Z,18.13
2019-02-23T10:07:20.931Z,14.90
2019-02-23T10:12:23.617Z,15.90
2019-02-23T10:17:25.846Z,16.60
2019-02-23T10:22:28.037Z,16.00
2019-02-23T11:05:14.661Z,13.37
2019-02-23T11:20:16.935Z,9.07
2019-02-23T11:25:19.758Z,7.97
2019-02-23T11:30:22.393Z,8.30
2019-02-23T11:35:25.049Z,7.30
2019-02-23T11:40:27.334Z,9.87
2019-02-23T11:45:31.023Z,12.17
2019-02-23T11:50:34.876Z,10.60
2019-02-23T11:55:37.248Z,9.27
2019-02-23T12:00:40.316Z,9.97
2019-02-23T12:05:43.763Z,14.87
2019-02-23T12:10:47.244Z,11.30
2019-02-23T12:15:50.243Z,11.87
2019-02-23T12:20:52.811Z,14.13
2019-02-23T12:25:55.272Z,12.40
2019-02-23T12:30:57.763Z,9.53
2019-02-23T12:36:01.219Z,8.77
2019-02-23T12:41:03.584Z,11.10
2019-02-23T12:46:05.893Z,11.93
2019-02-23T12:51:08.874Z,11.07
2019-02-23T12:56:11.750Z,12.83
2019-02-23T13:01:14.120Z,11.33
2019-02-23T13:06:17.183Z,10.97
2019-02-23T13:11:20.021Z,10.93
2019-02-23T13:17:17.540Z,13.73
2019-02-23T13:22:54.204Z,10.40
2019-02-23T13:28:54.439Z,10.63
2019-02-23T13:34:54.723Z,9.83
2019-02-23T13:40:34.950Z,8.63
2019-02-23T13:46:01.282Z,9.57
2019-02-23T13:51:28.382Z,11.37
2019-02-23T13:56:56.187Z,10.33
2019-02-23T14:03:13.390Z,8.83
2019-02-23T14:09:08.195Z,12.23
2019-02-23T14:14:54.303Z,10.63
2019-02-23T14:20:55.882Z,9.93
2019-02-23T14:26:50.336Z,9.43
2019-02-23T14:32:28.852Z,10.23
2019-02-23T14:38:33.213Z,9.50
2019-02-23T14:44:24.955Z,8.53
2019-02-23T14:50:47.115Z,9.83
2019-02-23T14:56:33.494Z,10.20
2019-02-23T15:02:14.982Z,8.93
2019-02-23T15:08:10.457Z,12.10
2019-02-23T15:13:46.623Z,8.53
2019-02-23T15:19:12.950Z,9.30
2019-02-23T15:25:13.343Z,8.67
2019-02-23T15:30:33.836Z,8.93
2019-02-23T15:36:41.895Z,11.77
2019-02-23T15:42:38.479Z,11.27
2019-02-23T15:48:13.964Z,10.17
2019-02-23T15:53:16.770Z,11.47
2019-02-23T15:58:19.457Z,16.50
2019-02-23T16:03:22.500Z,9.60
2019-02-23T16:08:28.380Z,13.33
2019-02-23T16:13:30.731Z,11.20
2019-02-23T16:18:34.223Z,11.60
2019-02-23T16:23:37.299Z,12.63
2019-02-23T16:28:39.495Z,11.47
2019-02-23T16:33:42.498Z,13.57
2019-02-23T16:38:45.521Z,13.30
2019-02-23T16:43:48.548Z,15.23
2019-02-23T16:48:51.270Z,12.10
2019-02-23T16:54:07.925Z,11.53
2019-02-23T16:59:10.952Z,13.23
2019-02-23T17:04:13.185Z,16.40
2019-02-23T17:09:15.573Z,13.67
2019-02-23T17:14:18.687Z,12.37
2019-02-23T17:19:21.384Z,14.27
2019-02-23T17:31:20.137Z,16.47
2019-02-23T17:36:22.988Z,18.93
2019-02-23T17:41:26.167Z,15.40
2019-02-23T17:46:29.296Z,13.97
2019-02-23T17:51:31.601Z,18.40
2019-02-23T17:56:34.837Z,17.57
2019-02-23T18:01:37.213Z,19.80
2019-02-23T18:06:44.272Z,16.23
2019-02-23T18:11:46.795Z,14.77
2019-02-23T18:16:49.121Z,16.83
2019-02-23T18:21:51.404Z,18.03
2019-02-23T18:26:53.840Z,16.40
2019-02-23T18:31:56.184Z,18.53
2019-02-23T18:37:00.463Z,16.30
2019-02-23T18:42:02.946Z,23.73
2019-02-23T18:47:05.784Z,16.67
2019-02-23T18:52:08.988Z,17.50
2019-02-23T18:57:11.440Z,18.87
2019-02-23T19:02:13.976Z,16.30
2019-02-23T19:07:16.270Z,17.97
2019-02-23T19:12:18.543Z,20.00
2019-02-23T19:17:23.692Z,14.90
2019-02-23T19:22:48.667Z,14.77
2019-02-23T19:27:52.989Z,19.70
2019-02-23T19:32:55.736Z,17.33
2019-02-23T19:37:58.072Z,16.33
2019-02-23T19:43:00.442Z,21.77
2019-02-23T19:48:03.424Z,20.03
2019-02-23T19:53:06.680Z,19.80
2019-02-23T19:58:10.154Z,22.17
2019-02-23T20:03:17.145Z,23.33
2019-02-23T20:08:19.749Z,15.77
2019-02-23T20:13:24.255Z,20.50
2019-02-23T20:18:26.994Z,45.73
2019-02-23T20:23:30.898Z,19.87
2019-02-23T20:29:00.966Z,18.20
2019-02-23T20:34:05.821Z,17.43
2019-02-23T20:39:08.916Z,21.07
2019-02-23T20:44:16.279Z,22.63
2019-02-23T20:49:19.857Z,29.17
2019-02-23T20:54:22.504Z,35.57
2019-02-23T20:59:25.017Z,19.07
2019-02-23T21:04:28.440Z,24.83
2019-02-23T21:09:31.316Z,19.73
2019-02-23T21:14:36.815Z,20.53
2019-02-23T21:19:41.109Z,44.47
2019-02-23T21:24:44.330Z,20.17
2019-02-23T21:29:47.451Z,23.60
2019-02-23T21:34:49.822Z,20.13
2019-02-23T21:39:58.364Z,15.80
2019-02-23T21:45:07.965Z,20.00
2019-02-23T21:50:21.886Z,18.80
2019-02-23T22:00:47.267Z,17.80
2019-02-23T22:05:50.294Z,14.97
2019-02-23T22:10:52.572Z,44.27
2019-02-23T22:15:55.219Z,31.90
2019-02-23T22:20:58.404Z,22.00
2019-02-23T22:26:01.136Z,19.27
2019-02-23T22:31:03.924Z,18.53
2019-02-23T22:36:06.774Z,22.33
2019-02-23T23:01:58.363Z,23.77
2019-02-23T23:07:00.571Z,19.60
2019-02-23T23:12:03.071Z,28.83
2019-02-23T23:17:05.961Z,24.13
2019-02-23T23:22:08.120Z,21.87
2019-02-23T23:27:11.854Z,25.17
2019-02-23T23:32:14.550Z,25.13
2019-02-23T23:37:16.848Z,32.43
2019-02-23T23:42:19.129Z,21.00
2019-02-23T23:47:22.209Z,22.93
2019-02-23T23:52:24.709Z,22.00
2019-02-23T23:57:27.399Z,20.93
